Alexandra Danos — WDD9560 — position and weather

sailwx.info

Track history (hours):
 
Tides and Currents Weather Stations Pressure Air Temp Water Temp Dewpoint Dewpoint Depression Visibility Wind Speed Wind Dir Waves Ship Positions

Alexandra Danos

Owner: GOL SUPPLY BOATS, LLC, MATHEWS, LA. More information available from US FCC via Universal Licensing System and Coast Guard Vessel Documentation Center.

Last reported at 2017-Nov-19 15:30 UTC. Time now 2017-Nov-19 15:55 UTC.
Position N 29°47' W 092°11'.

Length 47 m; draft 3 m.

Type: Ship. MMSI: 367313120.

Date/timePositionNaut miles runAvg speedWind from/ knotsBaromVisibWave heightAir tempDewpointWater temp
2017-Nov-19 15:30N 29°47' W 092°11'0 0.0
2017-Nov-19 15:00N 29°47' W 092°11'0 0.0
2017-Nov-19 14:31N 29°47' W 092°11'0 0.0
2017-Nov-19 14:00N 29°47' W 092°11'0 0.0
2017-Nov-19 13:31N 29°47' W 092°11'0 0.0
2017-Nov-19 13:00N 29°47' W 092°11'0 0.0
2017-Nov-19 12:30N 29°47' W 092°11'0 0.0
2017-Nov-19 12:01N 29°47' W 092°11'0 0.0
2017-Nov-19 11:30N 29°47' W 092°11'1 2.5
2017-Nov-19 11:00N 29°47' W 092°10'0 0.8
2017-Nov-19 10:31N 29°47' W 092°09'0 0.0
2017-Nov-19 10:00N 29°47' W 092°09'0 0.0
2017-Nov-19 09:30N 29°47' W 092°09'0 0.0
2017-Nov-19 09:01N 29°47' W 092°09'0 0.0
2017-Nov-19 08:30N 29°47' W 092°09'0 0.0
2017-Nov-19 08:00N 29°47' W 092°09'0 0.0
2017-Nov-19 07:30N 29°47' W 092°09'0 0.0
2017-Nov-19 07:01N 29°47' W 092°09'0 0.0
2017-Nov-19 06:30N 29°47' W 092°09'0 0.0
2017-Nov-19 06:00N 29°47' W 092°09'0 0.0
2017-Nov-19 05:30N 29°47' W 092°09'0 0.0
2017-Nov-19 05:01N 29°47' W 092°09'0 0.0
2017-Nov-19 04:30N 29°47' W 092°09'0 0.0
2017-Nov-19 04:00N 29°47' W 092°09'0 0.0
2017-Nov-19 03:30N 29°47' W 092°09'0 0.7
2017-Nov-19 03:00N 29°47' W 092°10'4 7.3
2017-Nov-19 02:30N 29°45' W 092°13'4 7.3
2017-Nov-19 02:00N 29°42' W 092°15'4 7.2
2017-Nov-19 01:28N 29°38' W 092°16'  
2017-Nov-16 14:27N 29°31' W 092°19'2 5.1
2017-Nov-16 14:00N 29°33' W 092°18'1 2.8
2017-Nov-16 13:30N 29°35' W 092°18'3 6.9
2017-Nov-16 13:01N 29°38' W 092°16'4 7.7
2017-Nov-16 12:30N 29°41' W 092°15'4 7.3
2017-Nov-16 12:00N 29°45' W 092°13'3 6.6
2017-Nov-16 11:30N 29°47' W 092°10'1 1.7
2017-Nov-16 11:00N 29°47' W 092°09'0 0.0
2017-Nov-16 10:30N 29°47' W 092°09'0 0.0
2017-Nov-16 10:00N 29°47' W 092°09'0 0.0
2017-Nov-16 09:31N 29°47' W 092°09'0 0.0
2017-Nov-16 09:00N 29°47' W 092°09'0 0.0
2017-Nov-16 08:31N 29°47' W 092°09'0 0.0
2017-Nov-16 08:01N 29°47' W 092°09'0 0.0
2017-Nov-16 07:30N 29°47' W 092°09'0 0.0
2017-Nov-16 07:01N 29°47' W 092°09'0 0.8
2017-Nov-16 06:31N 29°47' W 092°10'0 0.4
2017-Nov-16 06:00N 29°47' W 092°09'0 0.3
2017-Nov-16 05:30N 29°47' W 092°09'0 0.0
2017-Nov-16 05:01N 29°47' W 092°09'0 0.0
2017-Nov-16 04:31N 29°47' W 092°09'0 0.0
2017-Nov-16 04:01N 29°47' W 092°09'0 0.0
2017-Nov-16 03:30N 29°47' W 092°09'0 0.0
2017-Nov-16 03:01N 29°47' W 092°09'0 0.0
2017-Nov-16 02:30N 29°47' W 092°09'0 0.0
2017-Nov-16 02:01N 29°47' W 092°09'0 0.0
2017-Nov-16 01:31N 29°47' W 092°09'0 0.0
2017-Nov-16 01:01N 29°47' W 092°09'0 0.0
2017-Nov-16 00:30N 29°47' W 092°09'0 0.0
2017-Nov-16 00:01N 29°47' W 092°09'0 0.0
2017-Nov-15 23:30N 29°47' W 092°09'0 0.0
2017-Nov-15 23:01N 29°47' W 092°09'0 0.0
2017-Nov-15 22:30N 29°47' W 092°09'0 0.0
2017-Nov-15 22:01N 29°47' W 092°09'2 3.2
2017-Nov-15 21:31N 29°47' W 092°11'0 0.0
2017-Nov-15 21:00N 29°47' W 092°11'0 0.0
2017-Nov-15 20:30N 29°47' W 092°11'1 1.7
2017-Nov-15 20:00N 29°46' W 092°11'1 1.7
2017-Nov-15 19:31N 29°46' W 092°10'1 1.5
2017-Nov-15 19:00N 29°47' W 092°11'0 0.0
2017-Nov-15 18:30N 29°47' W 092°11'0 0.0
2017-Nov-15 18:01N 29°47' W 092°11'0 0.0
2017-Nov-15 17:30N 29°47' W 092°11'0 0.0
2017-Nov-15 17:00N 29°47' W 092°11'0 0.0
2017-Nov-15 16:31N 29°47' W 092°11'0 0.0
2017-Nov-15 16:00N 29°47' W 092°11'0 0.0
2017-Nov-15 15:30N 29°47' W 092°11'0 0.0
2017-Nov-15 15:00N 29°47' W 092°11'0 0.0
2017-Nov-15 14:31N 29°47' W 092°11'0 0.0
2017-Nov-15 14:01N 29°47' W 092°11'0 0.0
2017-Nov-15 13:30N 29°47' W 092°11'0 0.0
2017-Nov-15 13:01N 29°47' W 092°11'0 0.0
2017-Nov-15 12:31N 29°47' W 092°11'0 0.0
2017-Nov-15 12:01N 29°47' W 092°11'0 0.0
2017-Nov-15 11:30N 29°47' W 092°11'0 0.0
2017-Nov-15 11:01N 29°47' W 092°11'0 0.0
2017-Nov-15 10:31N 29°47' W 092°11'0 0.0
2017-Nov-15 10:00N 29°47' W 092°11'0 0.0
2017-Nov-15 09:31N 29°47' W 092°11'0 0.0
2017-Nov-15 09:01N 29°47' W 092°11'0 0.0
2017-Nov-15 08:30N 29°47' W 092°11'0 0.0
2017-Nov-15 08:00N 29°47' W 092°11'0 0.0
2017-Nov-15 07:30N 29°47' W 092°11'0 0.0
2017-Nov-15 07:00N 29°47' W 092°11'0 0.0
2017-Nov-15 06:30N 29°47' W 092°11'0 0.0
2017-Nov-15 06:00N 29°47' W 092°11'0 0.0
2017-Nov-15 05:30N 29°47' W 092°11'0 0.0
2017-Nov-15 05:00N 29°47' W 092°11'0 0.0
2017-Nov-15 04:31N 29°47' W 092°11'0 0.0
2017-Nov-15 04:00N 29°47' W 092°11'0 0.0
2017-Nov-15 03:30N 29°47' W 092°11'0 0.0
2017-Nov-15 03:00N 29°47' W 092°11'0 0.0
2017-Nov-15 02:31N 29°47' W 092°11'0 0.0
2017-Nov-15 02:00N 29°47' W 092°11'0 0.0
2017-Nov-15 01:31N 29°47' W 092°11'0 0.0
2017-Nov-15 01:00N 29°47' W 092°11'0 0.0
2017-Nov-15 00:30N 29°47' W 092°11'0 0.0
2017-Nov-15 00:01N 29°47' W 092°11'0 0.0
2017-Nov-14 23:30N 29°47' W 092°11'0 0.0
2017-Nov-14 23:00N 29°47' W 092°11'0 0.0
2017-Nov-14 22:30N 29°47' W 092°11'0 0.0
2017-Nov-14 22:00N 29°47' W 092°11'0 0.0
2017-Nov-14 21:31N 29°47' W 092°11'0 0.0
2017-Nov-14 21:01N 29°47' W 092°11'0 0.0
2017-Nov-14 20:31N 29°47' W 092°11'0 0.0
2017-Nov-14 20:00N 29°47' W 092°11'0 0.0
2017-Nov-14 19:31N 29°47' W 092°11'0 0.0
2017-Nov-14 19:00N 29°47' W 092°11'0 0.0
2017-Nov-14 18:31N 29°47' W 092°11'0 0.0
2017-Nov-14 18:00N 29°47' W 092°11'0 0.0
2017-Nov-14 17:31N 29°47' W 092°11'0 0.0
2017-Nov-14 17:01N 29°47' W 092°11'0 0.0
2017-Nov-14 16:31N 29°47' W 092°11'0 0.0
2017-Nov-14 16:00N 29°47' W 092°11'0 0.0
2017-Nov-14 15:30N 29°47' W 092°11'0 0.0
2017-Nov-14 15:01N 29°47' W 092°11'0 0.0
2017-Nov-14 14:30N 29°47' W 092°11'0 0.0
2017-Nov-14 14:00N 29°47' W 092°11'0 0.0
2017-Nov-14 13:31N 29°47' W 092°11'0 0.0
2017-Nov-14 13:00N 29°47' W 092°11'0 0.0
2017-Nov-14 12:30N 29°47' W 092°11'0 0.0
2017-Nov-14 11:59N 29°47' W 092°11'0 0.0
2017-Nov-14 11:26N 29°47' W 092°11'0 0.0
2017-Nov-14 11:00N 29°47' W 092°11'0 0.0
2017-Nov-14 10:30N 29°47' W 092°11'0 0.0
2017-Nov-14 10:00N 29°47' W 092°11'0 0.0
2017-Nov-14 09:25N 29°47' W 092°11'0 0.0
2017-Nov-14 08:59N 29°47' W 092°11'0 0.0
2017-Nov-14 08:29N 29°47' W 092°11'0 0.0
2017-Nov-14 07:59N 29°47' W 092°11'0 0.0
2017-Nov-14 07:29N 29°47' W 092°11'0 0.0
2017-Nov-14 06:57N 29°47' W 092°11'0 0.0
2017-Nov-14 06:29N 29°47' W 092°11'0 0.0
2017-Nov-14 05:59N 29°47' W 092°11'0 0.0
2017-Nov-14 05:29N 29°47' W 092°11'0 0.0
2017-Nov-14 04:53N 29°47' W 092°11'0 0.0
2017-Nov-14 04:03N 29°47' W 092°11'0 0.0
2017-Nov-14 03:59N 29°47' W 092°11'0 0.0
2017-Nov-14 03:29N 29°47' W 092°11'0 0.0
2017-Nov-14 02:59N 29°47' W 092°11'0 0.0
2017-Nov-14 02:29N 29°47' W 092°11'0 0.0
2017-Nov-14 01:59N 29°47' W 092°11'0 0.0
2017-Nov-14 01:30N 29°47' W 092°11'0 0.0
2017-Nov-14 01:00N 29°47' W 092°11'0 0.0
2017-Nov-14 00:30N 29°47' W 092°11'0 0.0
2017-Nov-13 23:59N 29°47' W 092°11'0 0.0
2017-Nov-13 23:29N 29°47' W 092°11'0 0.0
2017-Nov-13 22:59N 29°47' W 092°11'0 0.0
2017-Nov-13 22:30N 29°47' W 092°11'0 0.0
2017-Nov-13 22:00N 29°47' W 092°11'  
Track history (hours):
 
Tides and Currents Weather Stations Pressure Air Temp Water Temp Dewpoint Dewpoint Depression Visibility Wind Speed Wind Dir Waves Ship Positions

Alexandra Danos

Owner: GOL SUPPLY BOATS, LLC, MATHEWS, LA. More information available from US FCC via Universal Licensing System and Coast Guard Vessel Documentation Center.

Last reported at 2017-Nov-19 15:30 UTC. Time now 2017-Nov-19 15:55 UTC.
Position N 29°47' W 092°11'.

Length 47 m; draft 3 m.

Type: Ship. MMSI: 367313120.

Date/timePositionNaut miles runAvg speedWind from/ knotsBaromVisibWave heightAir tempDewpointWater temp
2017-Nov-19 15:30N 29°47' W 092°11'0 0.0
2017-Nov-19 15:00N 29°47' W 092°11'0 0.0
2017-Nov-19 14:31N 29°47' W 092°11'0 0.0
2017-Nov-19 14:00N 29°47' W 092°11'0 0.0
2017-Nov-19 13:31N 29°47' W 092°11'0 0.0
2017-Nov-19 13:00N 29°47' W 092°11'0 0.0
2017-Nov-19 12:30N 29°47' W 092°11'0 0.0
2017-Nov-19 12:01N 29°47' W 092°11'0 0.0
2017-Nov-19 11:30N 29°47' W 092°11'1 2.5
2017-Nov-19 11:00N 29°47' W 092°10'0 0.8
2017-Nov-19 10:31N 29°47' W 092°09'0 0.0
2017-Nov-19 10:00N 29°47' W 092°09'0 0.0
2017-Nov-19 09:30N 29°47' W 092°09'0 0.0
2017-Nov-19 09:01N 29°47' W 092°09'0 0.0
2017-Nov-19 08:30N 29°47' W 092°09'0 0.0
2017-Nov-19 08:00N 29°47' W 092°09'0 0.0
2017-Nov-19 07:30N 29°47' W 092°09'0 0.0
2017-Nov-19 07:01N 29°47' W 092°09'0 0.0
2017-Nov-19 06:30N 29°47' W 092°09'0 0.0
2017-Nov-19 06:00N 29°47' W 092°09'0 0.0
2017-Nov-19 05:30N 29°47' W 092°09'0 0.0
2017-Nov-19 05:01N 29°47' W 092°09'0 0.0
2017-Nov-19 04:30N 29°47' W 092°09'0 0.0
2017-Nov-19 04:00N 29°47' W 092°09'0 0.0
2017-Nov-19 03:30N 29°47' W 092°09'0 0.7
2017-Nov-19 03:00N 29°47' W 092°10'4 7.3
2017-Nov-19 02:30N 29°45' W 092°13'4 7.3
2017-Nov-19 02:00N 29°42' W 092°15'4 7.2
2017-Nov-19 01:28N 29°38' W 092°16'  
2017-Nov-16 14:27N 29°31' W 092°19'2 5.1
2017-Nov-16 14:00N 29°33' W 092°18'1 2.8
2017-Nov-16 13:30N 29°35' W 092°18'3 6.9
2017-Nov-16 13:01N 29°38' W 092°16'4 7.7
2017-Nov-16 12:30N 29°41' W 092°15'4 7.3
2017-Nov-16 12:00N 29°45' W 092°13'3 6.6
2017-Nov-16 11:30N 29°47' W 092°10'1 1.7
2017-Nov-16 11:00N 29°47' W 092°09'0 0.0
2017-Nov-16 10:30N 29°47' W 092°09'0 0.0
2017-Nov-16 10:00N 29°47' W 092°09'0 0.0
2017-Nov-16 09:31N 29°47' W 092°09'0 0.0
2017-Nov-16 09:00N 29°47' W 092°09'0 0.0
2017-Nov-16 08:31N 29°47' W 092°09'0 0.0
2017-Nov-16 08:01N 29°47' W 092°09'0 0.0
2017-Nov-16 07:30N 29°47' W 092°09'0 0.0
2017-Nov-16 07:01N 29°47' W 092°09'0 0.8
2017-Nov-16 06:31N 29°47' W 092°10'0 0.4
2017-Nov-16 06:00N 29°47' W 092°09'0 0.3
2017-Nov-16 05:30N 29°47' W 092°09'0 0.0
2017-Nov-16 05:01N 29°47' W 092°09'0 0.0
2017-Nov-16 04:31N 29°47' W 092°09'0 0.0
2017-Nov-16 04:01N 29°47' W 092°09'0 0.0
2017-Nov-16 03:30N 29°47' W 092°09'0 0.0
2017-Nov-16 03:01N 29°47' W 092°09'0 0.0
2017-Nov-16 02:30N 29°47' W 092°09'0 0.0
2017-Nov-16 02:01N 29°47' W 092°09'0 0.0
2017-Nov-16 01:31N 29°47' W 092°09'0 0.0
2017-Nov-16 01:01N 29°47' W 092°09'0 0.0
2017-Nov-16 00:30N 29°47' W 092°09'0 0.0
2017-Nov-16 00:01N 29°47' W 092°09'0 0.0
2017-Nov-15 23:30N 29°47' W 092°09'0 0.0
2017-Nov-15 23:01N 29°47' W 092°09'0 0.0
2017-Nov-15 22:30N 29°47' W 092°09'0 0.0
2017-Nov-15 22:01N 29°47' W 092°09'2 3.2
2017-Nov-15 21:31N 29°47' W 092°11'0 0.0
2017-Nov-15 21:00N 29°47' W 092°11'0 0.0
2017-Nov-15 20:30N 29°47' W 092°11'1 1.7
2017-Nov-15 20:00N 29°46' W 092°11'1 1.7
2017-Nov-15 19:31N 29°46' W 092°10'1 1.5
2017-Nov-15 19:00N 29°47' W 092°11'0 0.0
2017-Nov-15 18:30N 29°47' W 092°11'0 0.0
2017-Nov-15 18:01N 29°47' W 092°11'0 0.0
2017-Nov-15 17:30N 29°47' W 092°11'0 0.0
2017-Nov-15 17:00N 29°47' W 092°11'0 0.0
2017-Nov-15 16:31N 29°47' W 092°11'0 0.0
2017-Nov-15 16:00N 29°47' W 092°11'0 0.0
2017-Nov-15 15:30N 29°47' W 092°11'0 0.0
2017-Nov-15 15:00N 29°47' W 092°11'0 0.0
2017-Nov-15 14:31N 29°47' W 092°11'0 0.0
2017-Nov-15 14:01N 29°47' W 092°11'0 0.0
2017-Nov-15 13:30N 29°47' W 092°11'0 0.0
2017-Nov-15 13:01N 29°47' W 092°11'0 0.0
2017-Nov-15 12:31N 29°47' W 092°11'0 0.0
2017-Nov-15 12:01N 29°47' W 092°11'0 0.0
2017-Nov-15 11:30N 29°47' W 092°11'0 0.0
2017-Nov-15 11:01N 29°47' W 092°11'0 0.0
2017-Nov-15 10:31N 29°47' W 092°11'0 0.0
2017-Nov-15 10:00N 29°47' W 092°11'0 0.0
2017-Nov-15 09:31N 29°47' W 092°11'0 0.0
2017-Nov-15 09:01N 29°47' W 092°11'0 0.0
2017-Nov-15 08:30N 29°47' W 092°11'0 0.0
2017-Nov-15 08:00N 29°47' W 092°11'0 0.0
2017-Nov-15 07:30N 29°47' W 092°11'0 0.0
2017-Nov-15 07:00N 29°47' W 092°11'0 0.0
2017-Nov-15 06:30N 29°47' W 092°11'0 0.0
2017-Nov-15 06:00N 29°47' W 092°11'0 0.0
2017-Nov-15 05:30N 29°47' W 092°11'0 0.0
2017-Nov-15 05:00N 29°47' W 092°11'0 0.0
2017-Nov-15 04:31N 29°47' W 092°11'0 0.0
2017-Nov-15 04:00N 29°47' W 092°11'0 0.0
2017-Nov-15 03:30N 29°47' W 092°11'0 0.0
2017-Nov-15 03:00N 29°47' W 092°11'0 0.0
2017-Nov-15 02:31N 29°47' W 092°11'0 0.0
2017-Nov-15 02:00N 29°47' W 092°11'0 0.0
2017-Nov-15 01:31N 29°47' W 092°11'0 0.0
2017-Nov-15 01:00N 29°47' W 092°11'0 0.0
2017-Nov-15 00:30N 29°47' W 092°11'0 0.0
2017-Nov-15 00:01N 29°47' W 092°11'0 0.0
2017-Nov-14 23:30N 29°47' W 092°11'0 0.0
2017-Nov-14 23:00N 29°47' W 092°11'0 0.0
2017-Nov-14 22:30N 29°47' W 092°11'0 0.0
2017-Nov-14 22:00N 29°47' W 092°11'0 0.0
2017-Nov-14 21:31N 29°47' W 092°11'0 0.0
2017-Nov-14 21:01N 29°47' W 092°11'0 0.0
2017-Nov-14 20:31N 29°47' W 092°11'0 0.0
2017-Nov-14 20:00N 29°47' W 092°11'0 0.0
2017-Nov-14 19:31N 29°47' W 092°11'0 0.0
2017-Nov-14 19:00N 29°47' W 092°11'0 0.0
2017-Nov-14 18:31N 29°47' W 092°11'0 0.0
2017-Nov-14 18:00N 29°47' W 092°11'0 0.0
2017-Nov-14 17:31N 29°47' W 092°11'0 0.0
2017-Nov-14 17:01N 29°47' W 092°11'0 0.0
2017-Nov-14 16:31N 29°47' W 092°11'0 0.0
2017-Nov-14 16:00N 29°47' W 092°11'0 0.0
2017-Nov-14 15:30N 29°47' W 092°11'0 0.0
2017-Nov-14 15:01N 29°47' W 092°11'0 0.0
2017-Nov-14 14:30N 29°47' W 092°11'0 0.0
2017-Nov-14 14:00N 29°47' W 092°11'0 0.0
2017-Nov-14 13:31N 29°47' W 092°11'0 0.0
2017-Nov-14 13:00N 29°47' W 092°11'0 0.0
2017-Nov-14 12:30N 29°47' W 092°11'0 0.0
2017-Nov-14 11:59N 29°47' W 092°11'0 0.0
2017-Nov-14 11:26N 29°47' W 092°11'0 0.0
2017-Nov-14 11:00N 29°47' W 092°11'0 0.0
2017-Nov-14 10:30N 29°47' W 092°11'0 0.0
2017-Nov-14 10:00N 29°47' W 092°11'0 0.0
2017-Nov-14 09:25N 29°47' W 092°11'0 0.0
2017-Nov-14 08:59N 29°47' W 092°11'0 0.0
2017-Nov-14 08:29N 29°47' W 092°11'0 0.0
2017-Nov-14 07:59N 29°47' W 092°11'0 0.0
2017-Nov-14 07:29N 29°47' W 092°11'0 0.0
2017-Nov-14 06:57N 29°47' W 092°11'0 0.0
2017-Nov-14 06:29N 29°47' W 092°11'0 0.0
2017-Nov-14 05:59N 29°47' W 092°11'0 0.0
2017-Nov-14 05:29N 29°47' W 092°11'0 0.0
2017-Nov-14 04:53N 29°47' W 092°11'0 0.0
2017-Nov-14 04:03N 29°47' W 092°11'0 0.0
2017-Nov-14 03:59N 29°47' W 092°11'0 0.0
2017-Nov-14 03:29N 29°47' W 092°11'0 0.0
2017-Nov-14 02:59N 29°47' W 092°11'0 0.0
2017-Nov-14 02:29N 29°47' W 092°11'0 0.0
2017-Nov-14 01:59N 29°47' W 092°11'0 0.0
2017-Nov-14 01:30N 29°47' W 092°11'0 0.0
2017-Nov-14 01:00N 29°47' W 092°11'0 0.0
2017-Nov-14 00:30N 29°47' W 092°11'0 0.0
2017-Nov-13 23:59N 29°47' W 092°11'0 0.0
2017-Nov-13 23:29N 29°47' W 092°11'0 0.0
2017-Nov-13 22:59N 29°47' W 092°11'0 0.0
2017-Nov-13 22:30N 29°47' W 092°11'0 0.0
2017-Nov-13 22:00N 29°47' W 092°11'  

Dump ship's entire track history